createdAt,value
2022-09-28T00:01:47.674Z,9.05
2022-09-28T00:04:50.263Z,8.60
2022-09-28T00:07:56.744Z,8.87
2022-09-28T00:10:59.440Z,7.75
2022-09-28T00:14:03.775Z,8.75
2022-09-28T00:17:07.279Z,8.57
2022-09-28T00:20:10.336Z,8.57
2022-09-28T00:23:12.881Z,7.87
2022-09-28T00:26:15.786Z,8.13
2022-09-28T00:29:20.102Z,8.30
2022-09-28T00:32:24.742Z,7.18
2022-09-28T00:35:27.386Z,7.75
2022-09-28T00:38:30.315Z,8.00
2022-09-28T00:41:33.525Z,10.85
2022-09-28T00:44:39.454Z,7.88
2022-09-28T00:47:52.127Z,8.60
2022-09-28T00:50:55.164Z,9.13
2022-09-28T00:53:59.759Z,8.17
2022-09-28T00:57:03.746Z,9.23
2022-09-28T01:00:07.207Z,8.07
2022-09-28T01:03:10.811Z,8.65
2022-09-28T01:06:19.512Z,8.35
2022-09-28T01:09:22.486Z,6.97
2022-09-28T01:12:25.266Z,7.63
2022-09-28T01:15:30.110Z,7.95
2022-09-28T01:18:40.228Z,8.05
2022-09-28T01:21:54.598Z,7.07
2022-09-28T01:25:16.366Z,6.97
2022-09-28T01:28:21.806Z,7.00
2022-09-28T01:31:29.862Z,6.65
2022-09-28T01:34:41.582Z,7.05
2022-09-28T01:37:52.055Z,7.85
2022-09-28T01:40:57.577Z,7.63
2022-09-28T01:44:06.008Z,7.30
2022-09-28T01:47:13.005Z,7.30
2022-09-28T01:50:21.212Z,6.93
2022-09-28T01:53:46.847Z,8.75
2022-09-28T01:57:12.959Z,6.70
2022-09-28T02:00:19.060Z,7.93
2022-09-28T02:03:39.090Z,7.07
2022-09-28T02:06:49.258Z,6.85
2022-09-28T02:09:57.974Z,9.27
2022-09-28T02:13:43.760Z,7.20
2022-09-28T02:16:49.268Z,8.35
2022-09-28T02:19:51.921Z,6.80
2022-09-28T02:22:56.812Z,6.97
2022-09-28T02:26:06.854Z,7.15
2022-09-28T02:29:09.405Z,7.10
2022-09-28T02:32:12.242Z,6.65
2022-09-28T02:35:18.501Z,7.53
2022-09-28T02:38:21.323Z,7.88
2022-09-28T02:41:26.472Z,6.00
2022-09-28T02:44:35.127Z,7.07
2022-09-28T02:47:58.673Z,7.93
2022-09-28T02:51:09.030Z,7.35
2022-09-28T02:54:26.420Z,5.85
2022-09-28T02:57:39.580Z,7.07
2022-09-28T03:01:09.402Z,7.97
2022-09-28T03:04:36.561Z,6.47
2022-09-28T03:07:50.965Z,6.40
2022-09-28T03:11:03.865Z,6.78
2022-09-28T03:14:07.878Z,8.13
2022-09-28T03:17:27.665Z,6.13
2022-09-28T03:20:31.318Z,6.80
2022-09-28T03:23:33.951Z,7.03
2022-09-28T03:26:40.607Z,6.97
2022-09-28T03:29:43.328Z,5.57
2022-09-28T03:32:48.964Z,7.43
2022-09-28T03:35:51.773Z,7.10
2022-09-28T03:38:59.625Z,7.15
2022-09-28T03:42:02.644Z,7.80
2022-09-28T03:45:08.271Z,6.90
2022-09-28T03:48:11.807Z,8.10
2022-09-28T03:51:14.650Z,5.68
2022-09-28T03:54:17.127Z,5.57
2022-09-28T03:57:19.706Z,6.25
2022-09-28T04:00:23.102Z,7.45
2022-09-28T04:03:25.727Z,7.93
2022-09-28T04:06:29.304Z,7.97
2022-09-28T04:09:32.472Z,6.32
2022-09-28T04:12:34.966Z,5.80
2022-09-28T04:15:38.611Z,6.57
2022-09-28T04:18:41.133Z,6.20
2022-09-28T04:21:43.891Z,6.35
2022-09-28T04:24:49.248Z,6.30
2022-09-28T04:28:10.714Z,6.03
2022-09-28T04:31:16.343Z,6.18
2022-09-28T04:34:21.070Z,6.23
2022-09-28T04:37:24.655Z,6.72
2022-09-28T04:40:27.506Z,5.28
2022-09-28T04:43:33.141Z,7.22
2022-09-28T04:46:36.397Z,5.55
2022-09-28T04:49:57.514Z,5.93
2022-09-28T04:53:11.717Z,6.43
2022-09-28T04:56:16.173Z,5.22
2022-09-28T04:59:19.621Z,6.88
2022-09-28T05:02:22.256Z,5.70
2022-09-28T05:05:53.889Z,6.50
2022-09-28T05:09:07.172Z,7.78
2022-09-28T05:12:09.933Z,7.32
2022-09-28T05:15:13.303Z,5.88
2022-09-28T05:18:16.412Z,5.82
2022-09-28T05:21:29.342Z,5.00
2022-09-28T05:24:33.083Z,7.65
2022-09-28T05:27:35.915Z,6.50
2022-09-28T05:30:53.367Z,6.35
2022-09-28T05:34:25.147Z,7.43
2022-09-28T05:37:29.473Z,8.50
2022-09-28T05:40:33.001Z,8.25
2022-09-28T05:43:36.552Z,6.45
2022-09-28T05:46:40.628Z,7.60
2022-09-28T05:49:45.407Z,7.85
2022-09-28T05:53:07.874Z,5.80
2022-09-28T05:56:12.708Z,8.55
2022-09-28T05:59:19.358Z,7.45
2022-09-28T06:02:22.239Z,6.55
2022-09-28T06:05:25.387Z,6.18
2022-09-28T06:08:28.671Z,8.57
2022-09-28T06:11:49.135Z,6.68
2022-09-28T06:15:09.570Z,6.03
2022-09-28T06:18:17.137Z,7.35
2022-09-28T06:21:38.891Z,5.60
2022-09-28T06:24:42.533Z,6.33
2022-09-28T06:27:59.564Z,6.47
2022-09-28T06:31:02.278Z,7.00
2022-09-28T06:34:06.534Z,5.63
2022-09-28T06:37:09.122Z,4.60
2022-09-28T06:40:12.329Z,7.60
2022-09-28T06:43:15.590Z,6.40
2022-09-28T06:46:38.311Z,8.50
2022-09-28T06:50:00.091Z,4.72
2022-09-28T06:53:03.120Z,8.55
2022-09-28T06:56:21.972Z,6.17
2022-09-28T06:59:25.990Z,7.47
2022-09-28T07:02:30.480Z,4.55
2022-09-28T07:05:45.413Z,7.50
2022-09-28T07:09:31.723Z,6.85
2022-09-28T07:12:57.312Z,12.43
2022-09-28T07:16:09.278Z,12.07
2022-09-28T07:19:12.005Z,12.07
2022-09-28T07:22:19.192Z,7.30
2022-09-28T07:25:24.250Z,8.27
2022-09-28T07:28:45.628Z,7.17
2022-09-28T07:32:09.096Z,9.85
2022-09-28T07:35:34.366Z,10.25
2022-09-28T07:38:40.044Z,6.25
2022-09-28T07:41:44.043Z,6.68
2022-09-28T07:44:51.591Z,10.87
2022-09-28T07:47:58.840Z,9.55
2022-09-28T07:51:29.945Z,8.88
2022-09-28T07:54:53.056Z,9.20
2022-09-28T07:58:19.586Z,13.23
2022-09-28T08:01:37.564Z,16.50
2022-09-28T08:04:40.458Z,14.45
2022-09-28T08:07:44.299Z,11.82
2022-09-28T08:10:48.052Z,9.88
2022-09-28T08:14:14.086Z,10.30
2022-09-28T08:17:37.775Z,12.67
2022-09-28T08:21:01.783Z,14.73
2022-09-28T08:24:06.424Z,10.70
2022-09-28T08:27:10.512Z,12.75
2022-09-28T08:34:06.475Z,10.97
2022-09-28T08:37:28.937Z,11.40
2022-09-28T08:41:16.058Z,9.27
2022-09-28T08:44:48.313Z,9.93
2022-09-28T08:48:36.783Z,7.90
2022-09-28T08:52:38.526Z,12.93
2022-09-28T08:56:40.206Z,8.55
2022-09-28T08:59:59.281Z,7.90
2022-09-28T09:03:14.981Z,11.25
2022-09-28T09:06:48.481Z,12.85
2022-09-28T09:10:39.010Z,9.97
2022-09-28T09:14:23.410Z,15.52
2022-09-28T09:17:26.589Z,7.93
2022-09-28T09:21:06.486Z,11.95
2022-09-28T09:24:38.444Z,9.80
2022-09-28T09:27:49.189Z,9.43
2022-09-28T09:31:11.503Z,8.65
2022-09-28T09:34:40.643Z,13.13
2022-09-28T09:38:21.243Z,9.77
2022-09-28T09:42:18.846Z,8.85
2022-09-28T09:45:53.790Z,7.00
2022-09-28T09:50:05.476Z,6.25
2022-09-28T09:53:39.133Z,7.35
2022-09-28T09:57:06.110Z,8.20
2022-09-28T10:00:46.800Z,8.02
2022-09-28T10:04:04.929Z,9.60
2022-09-28T10:07:13.430Z,7.40
2022-09-28T10:10:21.601Z,8.23
2022-09-28T10:13:25.491Z,8.57
2022-09-28T10:16:33.381Z,7.05
2022-09-28T10:19:38.364Z,8.23
2022-09-28T10:23:19.819Z,7.82
2022-09-28T10:26:27.493Z,8.43
2022-09-28T10:29:37.914Z,6.60
2022-09-28T10:32:47.333Z,5.82
2022-09-28T10:35:50.663Z,5.70
2022-09-28T10:38:54.697Z,6.18
2022-09-28T10:42:09.866Z,6.15
2022-09-28T10:45:22.319Z,4.60
2022-09-28T10:48:27.273Z,5.78
2022-09-28T10:51:50.858Z,5.37
2022-09-28T10:55:01.123Z,4.57
2022-09-28T10:58:25.478Z,7.18
2022-09-28T11:01:38.873Z,6.25
2022-09-28T11:04:43.730Z,4.03
2022-09-28T11:07:48.216Z,6.10
2022-09-28T11:11:05.724Z,7.38
2022-09-28T11:14:24.980Z,3.20
2022-09-28T11:17:33.022Z,3.67
2022-09-28T11:20:44.207Z,3.95
2022-09-28T11:24:19.977Z,3.10
2022-09-28T11:27:28.352Z,2.75
2022-09-28T11:30:42.364Z,3.05
2022-09-28T11:34:07.307Z,4.78
2022-09-28T11:37:54.239Z,2.78
2022-09-28T11:41:25.389Z,2.97
2022-09-28T11:44:49.935Z,3.17
2022-09-28T11:48:07.233Z,4.78
2022-09-28T11:51:25.537Z,4.45
2022-09-28T11:54:43.152Z,6.82
2022-09-28T11:57:54.778Z,3.93
2022-09-28T12:01:18.700Z,4.78
2022-09-28T12:05:09.287Z,3.58
2022-09-28T12:08:15.214Z,4.10
2022-09-28T12:11:44.708Z,4.88
2022-09-28T12:15:06.282Z,3.83
2022-09-28T12:18:21.913Z,3.53
2022-09-28T12:21:25.659Z,4.57
2022-09-28T12:24:33.363Z,2.55
2022-09-28T12:27:53.726Z,2.80
2022-09-28T12:31:00.667Z,7.43
2022-09-28T12:34:03.877Z,3.50
2022-09-28T12:37:33.952Z,3.40
2022-09-28T12:41:01.487Z,3.70
2022-09-28T12:44:45.836Z,3.33
2022-09-28T12:48:17.420Z,5.80
2022-09-28T12:51:34.882Z,3.80
2022-09-28T12:54:59.294Z,5.47
2022-09-28T12:58:26.533Z,4.75
2022-09-28T13:01:53.849Z,5.53
2022-09-28T13:05:25.557Z,7.23
2022-09-28T13:08:41.432Z,8.80
2022-09-28T13:11:47.292Z,5.28
2022-09-28T13:15:19.087Z,7.63
2022-09-28T13:18:50.849Z,8.68
2022-09-28T13:22:26.210Z,5.93
2022-09-28T13:25:33.064Z,12.02
2022-09-28T13:28:37.897Z,10.45
2022-09-28T13:31:55.281Z,7.05
2022-09-28T13:34:59.323Z,10.85
2022-09-28T13:38:17.873Z,11.70
2022-09-28T13:41:29.354Z,6.68
2022-09-28T13:44:51.498Z,7.32
2022-09-28T13:48:27.040Z,5.93
2022-09-28T13:51:42.136Z,8.80
2022-09-28T13:55:25.172Z,6.90
2022-09-28T13:58:36.903Z,5.07
2022-09-28T14:01:42.729Z,8.25
2022-09-28T14:05:00.878Z,10.05
2022-09-28T14:08:09.218Z,5.18
2022-09-28T14:11:27.245Z,5.90
2022-09-28T14:14:47.245Z,6.13
2022-09-28T14:17:58.132Z,7.28
2022-09-28T14:21:26.373Z,6.72
2022-09-28T14:24:45.970Z,5.18
2022-09-28T14:28:19.197Z,3.67
2022-09-28T14:31:27.658Z,3.60
2022-09-28T14:34:41.401Z,4.32
2022-09-28T14:38:07.543Z,5.07
2022-09-28T14:41:16.324Z,3.90
2022-09-28T14:44:18.926Z,7.00
2022-09-28T14:47:34.985Z,4.85
2022-09-28T14:50:37.969Z,2.83
2022-09-28T14:53:41.082Z,4.97
2022-09-28T14:56:52.713Z,2.95
2022-09-28T14:59:59.703Z,4.60
2022-09-28T15:03:07.868Z,4.25
2022-09-28T15:06:19.804Z,3.78
2022-09-28T15:09:33.272Z,7.43
2022-09-28T15:12:35.873Z,4.63
2022-09-28T15:15:41.713Z,4.93
2022-09-28T15:19:22.866Z,6.18
2022-09-28T15:22:25.652Z,4.78
2022-09-28T15:25:30.375Z,3.72
2022-09-28T15:28:43.578Z,3.80
2022-09-28T15:31:49.942Z,101.20
2022-09-28T15:34:57.128Z,60.08
2022-09-28T15:37:59.893Z,46.35
2022-09-28T15:41:07.284Z,33.75
2022-09-28T15:44:12.852Z,26.50
2022-09-28T15:47:25.433Z,23.67
2022-09-28T15:50:29.991Z,29.05
2022-09-28T15:53:33.874Z,39.47
2022-09-28T15:57:02.046Z,29.85
2022-09-28T16:00:21.902Z,29.58
2022-09-28T16:03:29.462Z,34.13
2022-09-28T16:06:32.168Z,30.85
2022-09-28T16:09:55.835Z,21.42
2022-09-28T16:13:08.643Z,28.08
2022-09-28T16:16:15.670Z,21.40
2022-09-28T16:19:51.221Z,20.67
2022-09-28T16:22:54.629Z,21.27
2022-09-28T16:26:02.101Z,20.75
2022-09-28T16:29:42.069Z,21.92
2022-09-28T16:32:50.444Z,24.25
2022-09-28T16:35:53.082Z,22.20
2022-09-28T16:38:56.121Z,27.33
2022-09-28T16:42:11.134Z,15.20
2022-09-28T16:45:20.427Z,18.90
2022-09-28T16:48:27.099Z,26.02
2022-09-28T16:51:29.633Z,15.57
2022-09-28T16:54:50.519Z,15.80
2022-09-28T16:57:53.092Z,19.02
2022-09-28T17:00:55.707Z,15.90
2022-09-28T17:03:58.291Z,15.60
2022-09-28T17:07:00.866Z,19.70
2022-09-28T17:10:03.768Z,11.18
2022-09-28T17:13:06.326Z,12.65
2022-09-28T17:16:13.860Z,14.10
2022-09-28T17:19:22.185Z,15.95
2022-09-28T17:22:24.695Z,16.70
2022-09-28T17:25:27.415Z,12.45
2022-09-28T17:28:33.005Z,12.35
2022-09-28T17:31:35.943Z,18.08
2022-09-28T17:34:38.660Z,12.25
2022-09-28T17:37:42.257Z,14.73
2022-09-28T17:40:46.951Z,13.73
2022-09-28T17:43:49.727Z,17.50
2022-09-28T17:46:52.396Z,12.15
2022-09-28T17:49:55.033Z,12.68
2022-09-28T17:52:59.912Z,18.67
2022-09-28T17:56:02.406Z,16.38
2022-09-28T17:59:07.773Z,13.13
2022-09-28T18:02:11.614Z,14.07
2022-09-28T18:05:15.497Z,14.98
2022-09-28T18:08:20.863Z,12.43
2022-09-28T18:11:23.764Z,15.52
2022-09-28T18:14:26.504Z,9.75
2022-09-28T18:17:29.075Z,11.60
2022-09-28T18:20:31.856Z,14.00
2022-09-28T18:23:38.631Z,14.60
2022-09-28T18:26:41.494Z,14.43
2022-09-28T18:29:44.425Z,11.25
2022-09-28T18:32:47.010Z,9.90
2022-09-28T18:35:54.347Z,9.35
2022-09-28T18:38:57.645Z,6.33
2022-09-28T18:42:00.272Z,9.57
2022-09-28T18:45:05.888Z,12.95
2022-09-28T18:48:08.477Z,8.30
2022-09-28T18:51:12.490Z,11.60
2022-09-28T18:54:16.977Z,8.10
2022-09-28T18:57:19.600Z,11.90
2022-09-28T19:00:22.070Z,8.75
2022-09-28T19:03:24.915Z,8.82
2022-09-28T19:06:28.109Z,9.93
2022-09-28T19:09:30.719Z,8.07
2022-09-28T19:12:33.339Z,10.05
2022-09-28T19:15:36.077Z,9.15
2022-09-28T19:18:39.089Z,7.75
2022-09-28T19:21:43.356Z,6.85
2022-09-28T19:24:46.171Z,6.70
2022-09-28T19:27:48.882Z,9.80
2022-09-28T19:34:13.426Z,7.85
2022-09-28T19:37:17.059Z,8.63
2022-09-28T19:40:19.765Z,9.83
2022-09-28T19:43:22.447Z,9.05
2022-09-28T19:46:24.990Z,6.15
2022-09-28T19:49:33.025Z,9.00
2022-09-28T19:52:35.448Z,6.95
2022-09-28T19:55:39.110Z,6.80
2022-09-28T19:58:41.790Z,7.88
2022-09-28T20:01:44.340Z,4.53
2022-09-28T20:04:46.984Z,8.25
2022-09-28T20:07:49.440Z,8.65
2022-09-28T20:10:54.818Z,7.77
2022-09-28T20:13:59.812Z,10.57
2022-09-28T20:17:02.255Z,9.98
2022-09-28T20:20:04.995Z,6.03
2022-09-28T20:23:08.603Z,6.70
2022-09-28T20:26:11.733Z,5.83
2022-09-28T20:29:14.475Z,7.63
2022-09-28T20:32:17.009Z,6.50
2022-09-28T20:35:32.072Z,4.72
2022-09-28T20:38:40.434Z,6.57
2022-09-28T20:41:42.942Z,6.80
2022-09-28T20:44:45.416Z,7.22
2022-09-28T20:47:47.820Z,7.57
2022-09-28T20:51:00.699Z,7.53
2022-09-28T20:54:03.187Z,7.40
2022-09-28T20:57:17.606Z,9.57
2022-09-28T21:00:20.300Z,7.05
2022-09-28T21:03:22.897Z,9.73
2022-09-28T21:06:30.909Z,5.13
2022-09-28T21:09:33.887Z,7.50
2022-09-28T21:12:37.029Z,7.33
2022-09-28T21:15:39.843Z,7.30
2022-09-28T21:18:42.617Z,6.95
2022-09-28T21:21:45.202Z,6.93
2022-09-28T21:24:47.652Z,5.50
2022-09-28T21:27:50.592Z,7.43
2022-09-28T21:30:53.200Z,6.65
2022-09-28T21:33:56.174Z,9.88
2022-09-28T21:36:58.882Z,8.02
2022-09-28T21:40:02.674Z,4.75
2022-09-28T21:43:05.223Z,5.50
2022-09-28T21:46:08.097Z,4.30
2022-09-28T21:49:10.914Z,6.22
2022-09-28T21:52:13.644Z,4.22
2022-09-28T21:55:16.538Z,5.35
2022-09-28T21:58:24.354Z,6.97
2022-09-28T22:01:27.111Z,4.95
2022-09-28T22:04:29.798Z,6.32
2022-09-28T22:07:32.458Z,5.25
2022-09-28T22:10:35.230Z,5.03
2022-09-28T22:13:44.313Z,4.30
2022-09-28T22:16:47.055Z,5.50
2022-09-28T22:19:50.017Z,6.07
2022-09-28T22:22:52.707Z,5.00
2022-09-28T22:26:08.364Z,5.20
2022-09-28T22:29:11.061Z,5.67
2022-09-28T22:32:13.549Z,4.82
2022-09-28T22:35:16.193Z,6.10
2022-09-28T22:38:20.071Z,5.68
2022-09-28T22:41:23.500Z,4.93
2022-09-28T22:44:26.251Z,4.97
2022-09-28T22:47:28.675Z,5.28
2022-09-28T22:50:31.633Z,5.90
2022-09-28T22:53:35.552Z,6.07
2022-09-28T22:56:38.013Z,4.45
2022-09-28T22:59:40.647Z,5.67
2022-09-28T23:02:45.050Z,4.82
2022-09-28T23:05:54.792Z,5.95
2022-09-28T23:08:57.589Z,5.10
2022-09-28T23:12:00.528Z,4.95
2022-09-28T23:15:03.421Z,7.33
2022-09-28T23:18:06.138Z,4.63
2022-09-28T23:21:12.474Z,6.20
2022-09-28T23:24:15.177Z,5.30
2022-09-28T23:27:17.888Z,3.80
2022-09-28T23:30:21.352Z,3.60
2022-09-28T23:33:24.008Z,3.97
2022-09-28T23:36:27.291Z,5.38
2022-09-28T23:39:29.824Z,5.13
2022-09-28T23:42:32.947Z,4.88
2022-09-28T23:45:35.484Z,5.10
2022-09-28T23:48:38.795Z,4.25
2022-09-28T23:51:41.226Z,6.57
2022-09-28T23:54:44.026Z,4.15
2022-09-28T23:57:46.601Z,5.75
